Time;durP1;ratioP1;P1;durP2;ratioP2;P2;SDS_P1;SDS_P2;PMS_P1;PMS_P2;Temp;Humidity;BMP_temperature;BMP_pressure;BME280_temperature;BME280_humidity;BME280_pressure;Samples;Min_cycle;Max_cycle;Signal;HPM_P1;HPM_P2
2020/12/31 00:00:06;;;;;;;159.93;66.42;;;;;;;-1.35;79.29;99389.98;120402;1154;22974;-76
2020/12/31 00:02:55;;;;;;;157.43;65.45;;;;;;;-1.38;78.86;99392.77;120021;1154;23110;-77
2020/12/31 00:05:24;;;;;;;158.33;64.03;;;;;;;-1.40;79.73;99395.16;120201;1154;23225;-76
2020/12/31 00:07:53;;;;;;;173.13;69.30;;;;;;;-1.44;79.64;99392.48;120192;1154;25154;-75
2020/12/31 00:10:22;;;;;;;145.70;62.13;;;;;;;-1.48;79.75;99393.73;120144;1154;22967;-76
2020/12/31 00:12:52;;;;;;;137.17;61.13;;;;;;;-1.49;79.39;99397.68;120308;1154;22924;-77
2020/12/31 00:15:21;;;;;;;138.30;57.60;;;;;;;-1.52;79.03;99404.76;120047;1153;23780;-76
2020/12/31 00:17:50;;;;;;;131.50;56.10;;;;;;;-1.58;79.40;99400.95;120192;1154;23463;-76
2020/12/31 00:20:19;;;;;;;133.17;57.03;;;;;;;-1.60;79.03;99402.56;120102;1154;24253;-76
2020/12/31 00:22:48;;;;;;;138.20;59.13;;;;;;;-1.59;79.28;99402.12;120000;1154;23372;-76
2020/12/31 00:25:17;;;;;;;131.17;54.73;;;;;;;-1.58;79.02;99400.95;120153;1154;23636;-75
2020/12/31 00:27:46;;;;;;;136.63;56.77;;;;;;;-1.59;80.23;99409.59;120155;1154;23008;-75
2020/12/31 00:30:16;;;;;;;134.90;58.03;;;;;;;-1.56;79.15;99406.00;120114;1154;22980;-75
2020/12/31 00:32:45;;;;;;;;;;;;;;;-1.57;80.07;99405.22;121082;1154;26456;-75
2020/12/31 00:35:17;;;;;;;145.27;62.23;;;;;;;-1.55;79.88;99408.31;120458;1154;21575;-76
2020/12/31 00:37:46;;;;;;;156.15;63.05;;;;;;;-1.53;79.74;99416.88;120743;1154;23104;-76
2020/12/31 00:40:15;;;;;;;168.63;71.00;;;;;;;-1.47;80.35;99419.94;120515;1154;22977;-76
2020/12/31 00:42:44;;;;;;;184.00;76.50;;;;;;;-1.49;79.44;99425.80;119991;1154;22938;-76
2020/12/31 00:45:13;;;;;;;180.57;72.83;;;;;;;-1.48;80.25;99426.58;120094;1154;22973;-75
2020/12/31 00:47:42;;;;;;;195.33;78.43;;;;;;;-1.47;79.47;99423.45;120018;1154;22956;-76
2020/12/31 00:50:11;;;;;;;186.40;74.07;;;;;;;-1.49;79.69;99420.33;120127;1154;23002;-76
2020/12/31 00:52:40;;;;;;;175.40;73.90;;;;;;;-1.51;79.63;99419.97;120064;1154;22998;-76
2020/12/31 00:55:08;;;;;;;169.30;68.95;;;;;;;-1.53;79.10;99414.14;120180;1153;23802;-77
2020/12/31 00:57:38;;;;;;;155.80;65.70;;;;;;;-1.54;78.89;99418.09;120111;1154;22981;-75
2020/12/31 01:00:08;;;;;;;155.70;65.23;;;;;;;-1.55;79.31;99411.05;120109;1154;22922;-78
2020/12/31 01:02:37;;;;;;;153.18;63.23;;;;;;;-1.55;79.21;99416.53;120353;1154;22930;-76
2020/12/31 01:05:09;;;;;;;155.50;65.85;;;;;;;-1.57;79.01;99421.64;120137;1154;23460;-76
2020/12/31 01:07:38;;;;;;;151.87;61.97;;;;;;;-1.61;78.61;99425.66;120271;1154;23665;-75
2020/12/31 01:10:08;;;;;;;154.87;65.77;;;;;;;-1.62;79.27;99424.88;120750;1154;23119;-77
2020/12/31 01:12:39;;;;;;;140.57;58.00;;;;;;;-1.62;79.73;99430.34;120194;1154;23710;-76
2020/12/31 01:15:08;;;;;;;140.83;59.40;;;;;;;-1.62;79.18;99421.36;120230;1153;22905;-77
2020/12/31 01:17:37;;;;;;;137.87;59.93;;;;;;;-1.63;79.46;99425.30;120292;1154;22945;-76
2020/12/31 01:20:07;;;;;;;156.40;65.73;;;;;;;-1.68;79.12;99423.81;120179;1154;22967;-78
2020/12/31 01:22:36;;;;;;;150.12;62.85;;;;;;;-1.69;79.34;99420.29;122517;1154;22949;-77
2020/12/31 01:25:06;;;;;;;152.47;66.27;;;;;;;-1.71;79.36;99424.63;120135;1154;22911;-76
2020/12/31 01:27:38;;;;;;;162.60;70.43;;;;;;;-1.74;78.59;99422.73;120338;1154;26952;-76
2020/12/31 01:30:07;;;;;;;156.33;66.47;;;;;;;-1.77;79.51;99420.82;120141;1154;23074;-77
2020/12/31 01:32:36;;;;;;;154.93;64.83;;;;;;;-1.78;79.09;99417.30;120140;1154;25996;-75
2020/12/31 01:35:06;;;;;;;147.70;64.93;;;;;;;-1.78;79.04;99420.04;120694;1154;23004;-75
2020/12/31 01:37:34;;;;;;;153.33;64.33;;;;;;;-1.78;79.41;99425.51;120338;1154;22912;-78
2020/12/31 01:40:04;;;;;;;152.70;65.87;;;;;;;-1.77;79.84;99429.03;121256;1154;23428;-78
2020/12/31 01:42:33;;;;;;;141.50;61.65;;;;;;;-1.76;80.02;99423.13;121651;1152;27384;-79
2020/12/31 01:45:02;;;;;;;140.27;61.07;;;;;;;-1.77;79.55;99437.23;120828;1154;22950;-78
2020/12/31 01:47:30;;;;;;;143.67;61.67;;;;;;;-1.81;78.62;99437.30;120497;1154;22942;-79
2020/12/31 01:49:59;;;;;;;139.83;63.17;;;;;;;-1.82;79.59;99445.94;120570;1154;23033;-78
2020/12/31 01:52:30;;;;;;;144.23;61.77;;;;;;;-1.87;78.94;99443.66;120344;1154;22980;-78
2020/12/31 01:54:59;;;;;;;;;;;;;;;-1.88;78.87;99440.14;120538;1154;23037;-78
2020/12/31 01:57:30;;;;;;;137.17;58.07;;;;;;;-1.92;78.96;99446.84;120393;1154;21701;-78
2020/12/31 01:59:57;;;;;;;;;;;;;;;-1.94;79.37;99441.02;121047;1154;27369;-78
2020/12/31 02:02:26;;;;;;;124.03;57.83;;;;;;;-1.98;78.76;99449.28;120376;1154;23085;-78
2020/12/31 02:04:57;;;;;;;133.37;57.67;;;;;;;-1.99;78.87;99441.50;120442;1154;25746;-78
2020/12/31 02:07:26;;;;;;;140.15;58.90;;;;;;;-1.99;79.69;99446.97;120346;1154;23021;-80
2020/12/31 02:09:55;;;;;;;116.33;54.17;;;;;;;-1.97;78.82;99455.53;120237;1154;23930;-78
2020/12/31 02:12:25;;;;;;;129.87;59.13;;;;;;;-1.97;79.46;99464.52;120269;1154;23402;-80
2020/12/31 02:14:55;;;;;;;125.97;56.68;;;;;;;-1.97;79.38;99467.26;120393;1155;22956;-78
2020/12/31 02:17:24;;;;;;;120.70;56.10;;;;;;;-1.97;78.71;99453.58;120660;1154;22897;-79
2020/12/31 02:19:53;;;;;;;122.83;56.53;;;;;;;-2.01;78.94;99465.76;120480;1154;22974;-79
2020/12/31 02:22:23;;;;;;;124.80;56.30;;;;;;;-2.00;79.87;99462.60;120386;1154;26415;-78
2020/12/31 02:24:52;;;;;;;135.12;59.05;;;;;;;-2.02;78.99;99458.73;120311;1154;27392;-78
2020/12/31 02:27:21;;;;;;;138.47;58.97;;;;;;;-2.04;79.06;99466.56;120340;1154;23050;-79
2020/12/31 02:29:53;;;;;;;134.30;58.15;;;;;;;-2.08;79.54;99463.89;120493;1154;26640;-79
2020/12/31 02:32:22;;;;;;;122.77;58.33;;;;;;;-2.07;78.72;99467.41;120132;1154;22933;-79
2020/12/31 02:34:51;;;;;;;134.30;59.07;;;;;;;-2.11;78.56;99461.97;120211;1154;22985;-79
2020/12/31 02:37:20;;;;;;;135.67;58.80;;;;;;;-2.13;79.31;99463.59;120199;1154;23982;-79
2020/12/31 02:39:49;;;;;;;129.17;55.17;;;;;;;-2.16;78.44;99473.39;120360;1154;25963;-78
2020/12/31 02:42:20;;;;;;;121.33;55.37;;;;;;;-2.23;78.65;99470.73;120470;1154;24723;-79
2020/12/31 02:44:48;;;;;;;115.70;51.30;;;;;;;-2.27;78.80;99472.75;120246;1154;26433;-78
2020/12/31 02:47:17;;;;;;;113.70;53.83;;;;;;;-2.30;79.41;99470.86;120395;1154;22987;-78
2020/12/31 02:49:46;;;;;;;117.60;52.50;;;;;;;-2.29;79.22;99471.61;120188;1154;23001;-77
2020/12/31 02:52:15;;;;;;;116.73;53.13;;;;;;;-2.29;79.14;99472.39;120473;1154;22964;-78
2020/12/31 02:54:44;;;;;;;131.07;56.63;;;;;;;-2.26;79.90;99484.47;120215;1154;23344;-79
2020/12/31 02:57:13;;;;;;;127.85;58.40;;;;;;;-2.23;79.28;99489.09;120215;1154;22932;-79
2020/12/31 02:59:41;;;;;;;139.73;63.83;;;;;;;-2.23;79.35;99481.67;120207;1154;22967;-79
2020/12/31 03:02:10;;;;;;;147.73;62.80;;;;;;;-2.22;79.31;99479.72;120572;1154;22975;-78
2020/12/31 03:04:39;;;;;;;137.60;62.00;;;;;;;-2.24;79.45;99482.09;120270;1154;26523;-78
2020/12/31 03:07:08;;;;;;;135.17;61.37;;;;;;;-2.24;78.83;99482.09;120312;1154;22970;-78
2020/12/31 03:09:37;;;;;;;137.30;59.47;;;;;;;-2.25;79.12;99481.31;120450;1154;25881;-78
2020/12/31 03:12:06;;;;;;;125.10;54.60;;;;;;;-2.23;78.98;99489.09;120459;1154;23024;-79
2020/12/31 03:14:35;;;;;;;127.20;53.93;;;;;;;-2.23;79.64;99480.89;120371;1154;23480;-79
2020/12/31 03:17:04;;;;;;;117.57;52.53;;;;;;;-2.26;78.61;99481.73;120345;1154;24767;-78
2020/12/31 03:19:33;;;;;;;116.77;52.27;;;;;;;-2.29;79.02;99485.27;120446;1154;23022;-78
2020/12/31 03:22:02;;;;;;;105.57;49.70;;;;;;;-2.34;78.80;99486.53;120612;1154;23400;-80
2020/12/31 03:24:30;;;;;;;112.90;50.33;;;;;;;-2.36;79.16;99482.66;120429;1154;22970;-78
2020/12/31 03:26:59;;;;;;;111.50;50.77;;;;;;;-2.36;79.08;99477.19;120728;1154;24570;-78
2020/12/31 03:29:28;;;;;;;107.03;48.57;;;;;;;-2.37;79.52;99481.88;120352;1154;22929;-78
2020/12/31 03:31:59;;;;;;;121.67;51.20;;;;;;;-2.36;78.85;99485.39;120931;1154;22956;-78
2020/12/31 03:34:28;;;;;;;118.95;50.92;;;;;;;-2.37;79.65;99476.41;121219;1154;22953;-78
2020/12/31 03:36:57;;;;;;;113.33;50.10;;;;;;;-2.37;79.19;99479.14;120100;1154;22957;-77
2020/12/31 03:39:25;;;;;;;111.70;50.45;;;;;;;-2.36;79.55;99477.19;120335;1154;26002;-77
2020/12/31 03:41:54;;;;;;;115.73;53.70;;;;;;;-2.36;79.28;99486.17;120174;1154;24925;-78
2020/12/31 03:44:23;;;;;;;111.33;50.43;;;;;;;-2.36;79.60;99477.19;120405;1154;24755;-79
2020/12/31 03:46:52;;;;;;;109.37;51.57;;;;;;;-2.40;79.20;99485.41;120526;1154;22966;-78
2020/12/31 03:49:22;;;;;;;116.10;54.53;;;;;;;-2.44;79.22;99481.95;120285;1154;22976;-80
2020/12/31 03:51:50;;;;;;;117.45;55.55;;;;;;;-2.48;78.83;99484.73;120420;1154;24392;-77
2020/12/31 03:54:20;;;;;;;116.73;54.17;;;;;;;-2.49;78.82;99488.67;120445;1154;22918;-78
2020/12/31 03:56:49;;;;;;;120.80;57.95;;;;;;;-2.49;79.40;99485.94;120371;1154;26370;-80
2020/12/31 03:59:18;;;;;;;111.17;52.93;;;;;;;-2.49;79.24;99487.89;120408;1154;23080;-78
2020/12/31 04:01:47;;;;;;;113.00;54.40;;;;;;;-2.50;79.51;99486.33;120585;1154;22958;-78
2020/12/31 04:04:17;;;;;;;112.32;55.25;;;;;;;-2.50;78.80;99484.38;120625;1154;22907;-78
2020/12/31 04:06:45;;;;;;;113.13;52.37;;;;;;;-2.49;79.57;99479.69;120315;1154;22947;-78
2020/12/31 04:09:15;;;;;;;110.33;52.83;;;;;;;-2.49;79.30;99494.14;120460;1154;24457;-78
2020/12/31 04:11:44;;;;;;;122.80;53.07;;;;;;;-2.50;79.14;99489.05;121320;1154;22934;-79
2020/12/31 04:14:14;;;;;;;114.13;50.60;;;;;;;-2.50;79.57;99486.33;122906;1154;23205;-78
2020/12/31 04:16:43;;;;;;;115.17;53.50;;;;;;;-2.50;79.37;99483.59;123177;1154;23421;-78
2020/12/31 04:19:12;;;;;;;102.50;51.97;;;;;;;-2.49;78.68;99485.16;123113;1154;23046;-78
2020/12/31 04:21:42;;;;;;;123.00;54.13;;;;;;;-2.50;78.23;99480.86;120407;1154;22992;-77
2020/12/31 04:24:11;;;;;;;123.85;53.28;;;;;;;-2.52;78.50;99481.27;120678;1154;24620;-78
2020/12/31 04:26:40;;;;;;;118.57;51.98;;;;;;;-2.50;79.35;99487.11;120344;1154;22967;-81
2020/12/31 04:29:09;;;;;;;104.10;48.63;;;;;;;-2.53;79.13;99487.94;120456;1154;23021;-79
2020/12/31 04:31:39;;;;;;;118.53;50.63;;;;;;;-2.53;78.90;99495.36;120525;1154;23179;-78
2020/12/31 04:34:08;;;;;;;108.90;50.30;;;;;;;-2.55;78.05;99494.99;120258;1154;23080;-79
2020/12/31 04:36:40;;;;;;;102.90;47.10;;;;;;;-2.56;79.14;99490.70;120512;1154;23433;-78
2020/12/31 04:39:10;;;;;;;106.58;44.60;;;;;;;-2.55;79.61;99494.99;120493;1154;22970;-79
2020/12/31 04:41:38;;;;;;;103.33;47.67;;;;;;;-2.58;78.09;99495.80;120295;1154;26419;-79
2020/12/31 04:44:08;;;;;;;107.47;48.77;;;;;;;-2.60;78.53;99501.68;120738;1153;26365;-79
2020/12/31 04:46:40;;;;;;;100.93;44.67;;;;;;;-2.63;78.51;99496.27;120536;1154;25743;-79
2020/12/31 04:49:19;;;;;;;116.47;46.87;;;;;;;-2.70;78.30;99499.06;120545;1154;24011;-78
2020/12/31 04:51:53;;;;;;;97.10;45.90;;;;;;;-2.73;78.51;99502.62;120364;1154;24340;-78
2020/12/31 04:54:22;;;;;;;107.47;46.43;;;;;;;-2.77;79.28;99508.11;120400;1154;23406;-79
2020/12/31 04:56:53;;;;;;;108.00;48.20;;;;;;;-2.81;78.97;99504.64;120451;1154;24041;-79
2020/12/31 04:59:23;;;;;;;113.60;49.33;;;;;;;-2.83;78.40;99511.69;120389;1154;23117;-79
2020/12/31 05:01:52;;;;;;;108.53;46.97;;;;;;;-2.84;78.38;99504.70;120604;1152;23046;-80
2020/12/31 05:04:23;;;;;;;112.57;48.07;;;;;;;-2.86;78.97;99515.25;120760;1154;26024;-78
2020/12/31 05:06:54;;;;;;;108.83;47.37;;;;;;;-2.88;78.37;99521.13;120803;1154;22967;-76
2020/12/31 05:09:25;;;;;;;105.40;47.33;;;;;;;-2.92;78.87;99531.31;120443;1154;27394;-77
2020/12/31 05:11:56;;;;;;;100.50;45.67;;;;;;;-2.93;78.84;99537.16;120577;1154;22960;-77
2020/12/31 05:14:30;;;;;;;100.85;45.20;;;;;;;-2.94;78.58;99536.41;120228;1154;22994;-76
2020/12/31 05:17:12;;;;;;;98.83;46.13;;;;;;;-2.93;79.51;99540.67;120659;1154;22960;-77
2020/12/31 05:19:41;;;;;;;100.10;44.70;;;;;;;-2.91;78.80;99537.53;120375;1153;22967;-78
2020/12/31 05:22:15;;;;;;;101.23;46.60;;;;;;;-2.89;78.73;99537.90;120538;1154;22887;-77
2020/12/31 05:24:45;;;;;;;101.77;46.33;;;;;;;-2.86;78.40;99535.16;120550;1154;23044;-76
2020/12/31 05:27:20;;;;;;;99.20;43.17;;;;;;;-2.83;78.62;99539.00;120473;1154;23222;-77
2020/12/31 05:30:00;;;;;;;96.67;46.63;;;;;;;-2.78;78.81;99536.63;120685;1153;22950;-76
2020/12/31 05:32:32;;;;;;;101.20;44.57;;;;;;;-2.74;78.30;99534.63;120372;1154;23399;-76
2020/12/31 05:35:08;;;;;;;109.70;48.90;;;;;;;-2.73;78.12;99536.16;120311;1154;23055;-78
2020/12/31 05:37:37;;;;;;;111.13;46.60;;;;;;;-2.72;78.32;99547.88;120219;1152;23344;-77
2020/12/31 05:40:08;;;;;;;99.60;46.50;;;;;;;-2.73;78.25;99543.61;120267;1153;22937;-77
2020/12/31 05:42:39;;;;;;;100.23;44.73;;;;;;;-2.74;78.44;99550.23;120437;1154;27224;-78
2020/12/31 05:45:13;;;;;;;111.95;45.30;;;;;;;-2.72;78.38;99550.61;120497;1153;22933;-76
2020/12/31 05:47:49;;;;;;;113.40;46.53;;;;;;;-2.68;78.33;99545.88;120122;1154;22957;-76
2020/12/31 05:50:22;;;;;;;116.43;48.63;;;;;;;-2.69;78.04;99541.61;120171;1152;26146;-77
2020/12/31 05:52:52;;;;;;;115.57;48.77;;;;;;;-2.66;78.35;99552.49;120187;1153;23106;-76
2020/12/31 05:55:22;;;;;;;98.27;42.73;;;;;;;-2.63;77.89;99548.17;119908;1154;26082;-77
2020/12/31 05:57:53;;;;;;;127.10;55.73;;;;;;;-2.60;78.88;99548.12;120211;1154;22952;-77
2020/12/31 06:00:23;;;;;;;115.37;49.33;;;;;;;-2.55;78.75;99553.16;120318;1154;22949;-78
2020/12/31 06:02:53;;;;;;;;;;;;;;;-2.52;78.19;99549.59;120169;1154;25929;-77
2020/12/31 06:05:23;;;;;;;182.17;67.47;;;;;;;-2.55;78.03;99547.70;120120;1154;24485;-76
2020/12/31 06:07:53;;;;;;;269.25;92.72;;;;;;;-2.55;78.38;99550.42;120304;1154;23409;-77
2020/12/31 06:10:27;;;;;;;468.75;148.53;;;;;;;-2.60;77.51;99555.55;120099;1154;23106;-76
2020/12/31 06:13:00;;;;;;;323.23;107.87;;;;;;;-2.63;77.94;99553.64;120374;1154;23197;-77
2020/12/31 06:15:31;;;;;;;262.73;94.10;;;;;;;-2.63;78.96;99567.30;120198;1154;22942;-77
2020/12/31 06:18:03;;;;;;;302.30;104.50;;;;;;;-2.65;77.99;99556.76;120257;1154;25992;-77
2020/12/31 06:20:33;;;;;;;296.63;99.60;;;;;;;-2.63;78.63;99570.79;120581;1154;23026;-77
2020/12/31 06:23:07;;;;;;;275.33;91.70;;;;;;;-2.59;77.92;99570.77;120094;1154;22958;-77
2020/12/31 06:25:43;;;;;;;237.87;83.57;;;;;;;-2.60;77.77;99567.25;120021;1154;23050;-77
2020/12/31 06:28:17;;;;;;;209.33;79.37;;;;;;;-2.58;78.25;99573.09;120021;1154;22957;-77
2020/12/31 06:30:48;;;;;;;200.37;75.53;;;;;;;-2.59;77.90;99571.52;120006;1154;22951;-77
2020/12/31 06:33:21;;;;;;;216.03;83.73;;;;;;;-2.58;78.57;99569.58;119987;1154;22929;-75
2020/12/31 06:35:55;;;;;;;215.93;86.87;;;;;;;-2.58;77.60;99569.58;120089;1154;22947;-77
2020/12/31 06:38:32;;;;;;;189.13;76.17;;;;;;;-2.58;77.70;99569.58;120072;1154;23083;-75
2020/12/31 06:41:03;;;;;;;194.43;80.37;;;;;;;-2.58;77.58;99578.55;120004;1154;26514;-76
2020/12/31 06:43:34;;;;;;;209.62;86.97;;;;;;;-2.62;77.91;99566.89;119955;1154;26488;-77
2020/12/31 06:46:17;;;;;;;214.47;88.53;;;;;;;-2.66;77.82;99571.62;120155;1154;23363;-75
2020/12/31 06:48:51;;;;;;;232.47;93.27;;;;;;;-2.62;78.63;99574.30;119843;1154;22998;-75
2020/12/31 06:51:26;;;;;;;262.83;103.47;;;;;;;-2.60;78.97;99575.45;120165;1152;27733;-77
2020/12/31 06:53:54;;;;;;;269.30;107.40;;;;;;;-2.56;78.45;99575.41;119977;1154;26121;-76
2020/12/31 06:59:31;;;;;;;151.00;59.83;;;;;;;-2.73;78.08;99584.58;120447;1147;23024;-62
2020/12/31 07:02:03;;;;;;;135.63;58.00;;;;;;;-2.83;78.23;99580.76;120635;1149;22935;-61
2020/12/31 07:04:33;;;;;;;134.27;53.70;;;;;;;-2.82;78.77;99585.05;120340;1149;22920;-61
2020/12/31 07:07:24;;;;;;;141.53;58.17;;;;;;;-2.77;79.42;99586.55;120296;1149;23051;-62
2020/12/31 07:09:55;;;;;;;133.53;57.07;;;;;;;-2.73;79.05;99579.13;120272;1148;22958;-71
2020/12/31 07:12:35;;;;;;;129.37;53.93;;;;;;;-2.69;79.33;99585.32;124007;1149;24123;-63
2020/12/31 07:15:06;;;;;;;119.50;50.50;;;;;;;-2.66;79.15;99584.50;124157;1148;22713;-65
2020/12/31 07:17:37;;;;;;;115.77;50.10;;;;;;;-2.64;79.16;99587.59;124188;1149;22744;-63
2020/12/31 07:20:09;;;;;;;123.87;52.50;;;;;;;-2.62;79.49;99585.23;124102;1148;22721;-65
2020/12/31 07:22:39;;;;;;;116.47;50.70;;;;;;;-2.58;79.38;99575.82;124066;1149;23695;-64
2020/12/31 07:25:09;;;;;;;115.73;49.67;;;;;;;-2.58;79.69;99591.44;124155;1149;22706;-63
2020/12/31 07:27:40;;;;;;;103.02;49.90;;;;;;;-2.63;78.85;99586.43;124085;1149;22717;-63
2020/12/31 07:30:14;;;;;;;98.43;45.70;;;;;;;-2.67;79.24;99580.98;124141;1149;22828;-63
2020/12/31 07:32:55;;;;;;;101.43;43.77;;;;;;;-2.64;79.89;99584.86;124167;1149;22787;-63
2020/12/31 07:35:35;;;;;;;101.27;44.00;;;;;;;-2.60;79.17;99589.11;124054;1149;22816;-63
2020/12/31 07:38:08;;;;;;;101.33;44.03;;;;;;;-2.59;79.15;99593.38;124149;1149;22726;-64
2020/12/31 07:40:41;;;;;;;99.60;41.13;;;;;;;-2.60;79.39;99591.06;124146;1148;22852;-64
2020/12/31 07:43:14;;;;;;;96.53;43.00;;;;;;;-2.58;79.74;99584.02;124102;1149;22767;-64
2020/12/31 07:45:47;;;;;;;98.43;45.43;;;;;;;-2.57;78.95;99588.31;124124;1148;22858;-64
2020/12/31 07:48:17;;;;;;;110.70;50.60;;;;;;;-2.52;79.02;99596.05;122346;1149;22995;-62
2020/12/31 07:50:47;;;;;;;127.07;58.25;;;;;;;-2.52;79.19;99589.80;119893;1150;25654;-63
2020/12/31 07:53:16;;;;;;;134.57;62.90;;;;;;;-2.52;79.57;99590.59;121868;1150;23972;-63
2020/12/31 07:55:50;;;;;;;142.90;65.77;;;;;;;-2.51;79.10;99591.38;119933;1150;22942;-63
2020/12/31 07:58:21;;;;;;;246.77;115.83;;;;;;;-2.52;79.29;99590.59;120145;1149;26357;-62
2020/12/31 08:01:00;;;;;;;271.27;127.03;;;;;;;-2.52;79.48;99589.80;119884;1149;22922;-63
2020/12/31 08:03:30;;;;;;;184.10;82.27;;;;;;;-2.52;79.35;99589.80;119403;1150;25772;-64
2020/12/31 08:06:00;;;;;;;185.60;86.32;;;;;;;-2.55;79.54;99582.44;124108;1148;22842;-65
2020/12/31 08:08:30;;;;;;;182.35;77.32;;;;;;;-2.52;79.85;99590.59;124105;1149;23510;-65
2020/12/31 08:11:06;;;;;;;178.70;74.42;;;;;;;-2.48;79.39;99587.81;124080;1149;22728;-65
2020/12/31 08:13:35;;;;;;;160.67;67.40;;;;;;;-2.46;80.32;99582.70;124112;1149;22879;-64
2020/12/31 08:16:05;;;;;;;155.22;61.60;;;;;;;-2.50;80.08;99582.76;124080;1149;22720;-65
2020/12/31 08:18:34;;;;;;;147.70;61.92;;;;;;;-2.47;79.74;99576.49;124064;1149;24180;-64
2020/12/31 08:21:07;;;;;;;171.20;65.23;;;;;;;-2.45;80.20;99584.27;120579;1149;22934;-62
2020/12/31 08:23:41;;;;;;;135.50;55.80;;;;;;;-2.43;81.12;99595.58;120244;1149;23033;-62
2020/12/31 08:26:14;;;;;;;116.10;51.37;;;;;;;-2.43;80.27;99578.39;119967;1150;23090;-63
2020/12/31 08:28:46;;;;;;;127.17;54.50;;;;;;;-2.39;80.30;99584.59;120041;1149;27597;-63
2020/12/31 08:31:17;;;;;;;233.10;95.23;;;;;;;-2.37;80.63;99585.74;120008;1149;23022;-63
2020/12/31 08:33:49;;;;;;;225.27;101.60;;;;;;;-2.33;80.42;99580.23;120023;1150;24506;-61
2020/12/31 08:36:26;;;;;;;208.37;89.67;;;;;;;-2.28;80.80;99587.98;120244;1150;22945;-62
2020/12/31 08:38:58;;;;;;;195.20;87.80;;;;;;;-2.18;81.13;99581.62;120470;1150;22955;-56
2020/12/31 08:41:27;;;;;;;188.43;84.40;;;;;;;-2.11;81.07;99576.08;120310;1150;24531;-60
2020/12/31 08:44:00;;;;;;;170.00;78.50;;;;;;;-2.09;80.71;99581.91;120337;1150;22931;-60
2020/12/31 08:46:29;;;;;;;159.97;75.17;;;;;;;-2.06;80.95;99583.80;120380;1149;22945;-60
2020/12/31 08:48:58;;;;;;;144.90;69.50;;;;;;;-2.01;81.00;99594.30;120401;1150;22925;-60
2020/12/31 08:51:31;;;;;;;141.85;61.15;;;;;;;-1.96;81.10;99593.83;120395;1149;27260;-60
2020/12/31 08:54:04;;;;;;;95.12;41.60;;;;;;;-1.92;82.13;99586.35;120307;1150;22945;-61
2020/12/31 08:56:34;;;;;;;87.07;37.57;;;;;;;-1.86;81.82;99598.38;120463;1150;22893;-60
2020/12/31 08:59:10;;;;;;;81.32;37.90;;;;;;;-1.78;81.61;99592.41;120592;1151;24544;-60
2020/12/31 09:01:41;;;;;;;76.60;36.13;;;;;;;-1.71;81.94;99594.28;120786;1150;22899;-60
2020/12/31 09:04:13;;;;;;;78.10;36.40;;;;;;;-1.70;81.40;99598.58;121265;1149;24741;-59
2020/12/31 09:06:44;;;;;;;78.30;37.57;;;;;;;-1.69;82.16;99597.37;120375;1150;24530;-62
2020/12/31 09:09:19;;;;;;;;;;;;;;;-1.65;82.27;99593.41;120819;1150;22948;-60
2020/12/31 09:11:57;;;;;;;77.07;35.77;;;;;;;-1.58;81.70;99598.02;120335;1150;21572;-60
2020/12/31 09:14:28;;;;;;;97.40;45.37;;;;;;;-1.51;82.54;99595.16;120429;1150;22920;-59
2020/12/31 09:16:57;;;;;;;98.73;44.80;;;;;;;-1.44;82.21;99591.55;120537;1150;27283;-63
2020/12/31 09:19:27;;;;;;;95.00;43.70;;;;;;;-1.39;82.65;99602.04;120604;1150;22861;-59
2020/12/31 09:21:56;;;;;;;135.63;63.25;;;;;;;-1.33;82.89;99600.38;120456;1150;24363;-59
2020/12/31 09:24:25;;;;;;;143.90;69.77;;;;;;;-1.28;82.08;99606.16;120254;1150;26357;-61
2020/12/31 09:26:57;;;;;;;139.80;67.60;;;;;;;-1.24;82.66;99601.40;120333;1149;22910;-61
2020/12/31 09:29:27;;;;;;;97.97;48.03;;;;;;;-1.21;82.39;99602.54;120557;1149;23087;-58
2020/12/31 09:31:56;;;;;;;104.07;47.78;;;;;;;-1.17;82.23;99606.00;120087;1151;22942;-61
2020/12/31 09:34:25;;;;;;;81.10;39.63;;;;;;;-1.11;82.84;99607.06;120171;1150;22901;-63
2020/12/31 09:37:01;;;;;;;95.87;44.30;;;;;;;-1.07;82.39;99600.34;120456;1149;23016;-60
2020/12/31 09:39:31;;;;;;;126.13;55.57;;;;;;;-1.05;82.86;99597.97;121207;1150;23929;-61
2020/12/31 09:42:00;;;;;;;106.00;50.45;;;;;;;-1.00;82.67;99593.98;120456;1150;26404;-58
2020/12/31 09:44:29;;;;;;;104.63;48.17;;;;;;;-0.97;82.66;99588.44;120505;1151;22936;-62
2020/12/31 09:46:59;;;;;;;115.63;52.30;;;;;;;-0.94;82.12;99592.31;120440;1149;22936;-61
2020/12/31 09:49:28;;;;;;;113.87;50.83;;;;;;;-0.88;82.68;99593.38;122667;1149;23018;-60
2020/12/31 09:51:57;;;;;;;141.33;61.37;;;;;;;-0.83;82.27;99590.17;120409;1150;25886;-59
2020/12/31 09:54:28;;;;;;;241.00;104.03;;;;;;;-0.76;82.91;99595.52;120516;1150;25487;-59
2020/12/31 09:56:59;;;;;;;256.90;112.93;;;;;;;-0.69;82.37;99589.92;121032;1149;22972;-61
2020/12/31 09:59:28;;;;;;;397.07;172.53;;;;;;;-0.63;83.09;99584.72;120381;1150;22914;-57
2020/12/31 10:01:59;;;;;;;492.17;235.03;;;;;;;-0.58;83.02;99585.00;120373;1150;22955;-62
2020/12/31 10:04:28;;;;;;;395.07;173.73;;;;;;;-0.53;82.56;99579.05;120536;1149;26504;-59
2020/12/31 10:06:58;;;;;;;276.77;115.40;;;;;;;-0.47;82.59;99574.62;120470;1149;24288;-62
2020/12/31 10:09:27;;;;;;;204.60;90.15;;;;;;;-0.41;82.69;99577.64;120409;1150;27356;-60
2020/12/31 10:11:56;;;;;;;176.83;79.03;;;;;;;-0.36;82.77;99577.16;120599;1149;23130;-61
2020/12/31 10:14:26;;;;;;;128.90;62.00;;;;;;;-0.30;83.05;99569.98;120625;1149;27379;-61
2020/12/31 10:16:56;;;;;;;143.17;65.90;;;;;;;-0.24;83.01;99568.30;120395;1149;26425;-61
2020/12/31 10:19:26;;;;;;;145.47;64.17;;;;;;;-0.18;83.12;99574.84;120307;1150;22926;-62
2020/12/31 10:21:55;;;;;;;123.67;52.87;;;;;;;-0.13;83.01;99572.39;120355;1150;22920;-61
2020/12/31 10:24:24;;;;;;;99.70;48.50;;;;;;;-0.06;82.82;99576.93;120223;1150;22944;-62
2020/12/31 10:26:53;;;;;;;102.20;45.50;;;;;;;0.01;82.63;99574.05;120058;1150;26638;-62
2020/12/31 10:29:22;;;;;;;113.40;46.67;;;;;;;0.06;83.06;99565.34;120175;1149;27121;-64
2020/12/31 10:31:53;;;;;;;109.35;49.75;;;;;;;0.12;82.54;99566.37;120062;1150;23549;-64
2020/12/31 10:34:25;;;;;;;99.50;46.30;;;;;;;0.17;82.80;99562.34;119964;1149;26363;-64
2020/12/31 10:36:55;;;;;;;94.50;41.40;;;;;;;0.21;83.06;99563.81;120020;1150;22945;-65
2020/12/31 10:39:25;;;;;;;86.93;39.43;;;;;;;0.25;82.90;99561.01;120037;1150;24266;-64
2020/12/31 10:41:54;;;;;;;79.20;35.30;;;;;;;0.30;82.92;99560.48;119946;1149;23106;-64
2020/12/31 10:44:23;;;;;;;76.77;38.87;;;;;;;0.36;82.64;99556.03;119685;1149;23045;-63
2020/12/31 10:46:55;;;;;;;83.00;38.95;;;;;;;0.44;82.42;99565.66;119772;1150;22920;-63
2020/12/31 10:49:24;;;;;;;88.60;42.00;;;;;;;0.49;82.85;99562.41;119692;1149;22930;-61
2020/12/31 10:51:54;;;;;;;98.75;41.73;;;;;;;0.54;82.90;99559.14;124056;1149;22792;-62
2020/12/31 10:54:23;;;;;;;81.10;39.07;;;;;;;0.61;83.14;99557.02;123974;1148;23447;-62
2020/12/31 10:56:55;;;;;;;76.50;36.17;;;;;;;0.67;82.74;99552.55;124005;1149;22724;-63
2020/12/31 10:59:24;;;;;;;76.27;34.57;;;;;;;0.71;82.61;99542.25;124050;1149;24072;-63
2020/12/31 11:01:54;;;;;;;76.40;34.00;;;;;;;0.77;82.71;99542.50;124039;1149;23655;-63
2020/12/31 11:04:23;;;;;;;68.20;32.10;;;;;;;0.81;82.59;99538.47;124024;1150;22752;-63
2020/12/31 11:06:52;;;;;;;71.50;32.17;;;;;;;0.86;82.73;99534.44;124022;1149;23879;-63
2020/12/31 11:09:21;;;;;;;64.37;31.90;;;;;;;0.93;82.27;99530.75;124071;1149;22757;-62
2020/12/31 11:11:52;;;;;;;64.58;30.57;;;;;;;1.01;83.06;99534.86;124071;1149;22709;-61
2020/12/31 11:14:21;;;;;;;75.17;33.47;;;;;;;1.06;82.33;99528.82;124368;1147;22874;-62
2020/12/31 11:16:51;;;;;;;75.50;35.00;;;;;;;1.12;82.51;99529.87;124347;1146;23386;-62
2020/12/31 11:19:22;;;;;;;83.22;36.70;;;;;;;1.17;82.67;99521.86;124090;1146;23373;-61
2020/12/31 11:21:52;;;;;;;71.97;32.73;;;;;;;1.22;82.37;99524.06;120286;1148;22927;-61